sensor_id;sensor_type;location;lat;lon;timestamp;pressure;altitude;pressure_sealevel;temperature;humidity
19676;BME280;39539;52.202;9.876;2023-02-10T00:01:24;102534.63;;;2.07;100.00
19676;BME280;39539;52.202;9.876;2023-02-10T00:03:50;102535.97;;;2.00;100.00
19676;BME280;39539;52.202;9.876;2023-02-10T00:06:17;102536.78;;;2.00;100.00
19676;BME280;39539;52.202;9.876;2023-02-10T00:08:51;102543.09;;;1.98;100.00
19676;BME280;39539;52.202;9.876;2023-02-10T00:11:17;102548.34;;;1.98;100.00
19676;BME280;39539;52.202;9.876;2023-02-10T00:13:45;102544.66;;;2.00;100.00
19676;BME280;39539;52.202;9.876;2023-02-10T00:16:12;102553.56;;;1.98;100.00
19676;BME280;39539;52.202;9.876;2023-02-10T00:18:40;102549.28;;;1.97;100.00
19676;BME280;39539;52.202;9.876;2023-02-10T00:21:07;102525.03;;;1.80;100.00
19676;BME280;39539;52.202;9.876;2023-02-10T00:23:33;102549.41;;;1.95;100.00
19676;BME280;39539;52.202;9.876;2023-02-10T00:26:02;102551.69;;;2.00;100.00
19676;BME280;39539;52.202;9.876;2023-02-10T00:28:28;102544.25;;;1.94;100.00
19676;BME280;39539;52.202;9.876;2023-02-10T00:30:53;102547.09;;;1.91;100.00
19676;BME280;39539;52.202;9.876;2023-02-10T00:33:18;102548.53;;;1.95;100.00
19676;BME280;39539;52.202;9.876;2023-02-10T00:35:43;102567.44;;;2.00;100.00
19676;BME280;39539;52.202;9.876;2023-02-10T00:38:09;102571.22;;;1.96;100.00
19676;BME280;39539;52.202;9.876;2023-02-10T00:40:34;102563.22;;;1.97;100.00
19676;BME280;39539;52.202;9.876;2023-02-10T00:43:00;102569.09;;;1.88;100.00
19676;BME280;39539;52.202;9.876;2023-02-10T00:45:25;102543.47;;;1.66;100.00
19676;BME280;39539;52.202;9.876;2023-02-10T00:47:50;102575.38;;;1.86;100.00
19676;BME280;39539;52.202;9.876;2023-02-10T00:50:16;102565.84;;;1.85;100.00
19676;BME280;39539;52.202;9.876;2023-02-10T00:52:46;102567.44;;;1.87;100.00
19676;BME280;39539;52.202;9.876;2023-02-10T00:55:12;102576.22;;;1.86;100.00
19676;BME280;39539;52.202;9.876;2023-02-10T00:57:37;102569.28;;;1.72;100.00
19676;BME280;39539;52.202;9.876;2023-02-10T01:00:03;102579.38;;;1.78;100.00
19676;BME280;39539;52.202;9.876;2023-02-10T01:02:29;102563.81;;;1.63;100.00
19676;BME280;39539;52.202;9.876;2023-02-10T01:04:54;102591.00;;;1.74;100.00
19676;BME280;39539;52.202;9.876;2023-02-10T01:07:19;102588.56;;;1.71;100.00
19676;BME280;39539;52.202;9.876;2023-02-10T01:09:45;102585.66;;;1.76;100.00
19676;BME280;39539;52.202;9.876;2023-02-10T01:12:10;102592.06;;;1.85;100.00
19676;BME280;39539;52.202;9.876;2023-02-10T01:14:36;102577.34;;;1.69;100.00
19676;BME280;39539;52.202;9.876;2023-02-10T01:17:01;102581.25;;;1.76;100.00
19676;BME280;39539;52.202;9.876;2023-02-10T01:19:26;102569.88;;;1.63;100.00
19676;BME280;39539;52.202;9.876;2023-02-10T01:21:52;102596.66;;;1.81;100.00
19676;BME280;39539;52.202;9.876;2023-02-10T01:24:18;102579.75;;;1.72;100.00
19676;BME280;39539;52.202;9.876;2023-02-10T01:26:44;102592.78;;;1.74;100.00
19676;BME280;39539;52.202;9.876;2023-02-10T01:29:09;102588.16;;;1.77;100.00
19676;BME280;39539;52.202;9.876;2023-02-10T01:31:34;102587.28;;;1.64;100.00
19676;BME280;39539;52.202;9.876;2023-02-10T01:34:00;102592.88;;;1.72;100.00
19676;BME280;39539;52.202;9.876;2023-02-10T01:36:26;102613.69;;;1.88;100.00
19676;BME280;39539;52.202;9.876;2023-02-10T01:38:52;102616.50;;;1.85;100.00
19676;BME280;39539;52.202;9.876;2023-02-10T01:41:20;102607.06;;;1.83;100.00
19676;BME280;39539;52.202;9.876;2023-02-10T01:46:27;102606.00;;;1.85;100.00
19676;BME280;39539;52.202;9.876;2023-02-10T01:48:54;102598.91;;;1.87;100.00
19676;BME280;39539;52.202;9.876;2023-02-10T01:51:23;102598.25;;;1.84;100.00
19676;BME280;39539;52.202;9.876;2023-02-10T01:53:49;102599.94;;;1.85;100.00
19676;BME280;39539;52.202;9.876;2023-02-10T01:56:15;102604.03;;;1.89;100.00
19676;BME280;39539;52.202;9.876;2023-02-10T01:58:41;102600.06;;;1.96;100.00
19676;BME280;39539;52.202;9.876;2023-02-10T02:01:08;102604.34;;;1.97;100.00
19676;BME280;39539;52.202;9.876;2023-02-10T02:03:34;102602.47;;;1.99;100.00
19676;BME280;39539;52.202;9.876;2023-02-10T02:05:59;102595.94;;;1.92;100.00
19676;BME280;39539;52.202;9.876;2023-02-10T02:08:29;102593.88;;;1.97;100.00
19676;BME280;39539;52.202;9.876;2023-02-10T02:11:03;102594.28;;;2.03;100.00
19676;BME280;39539;52.202;9.876;2023-02-10T02:27:37;102614.00;;;2.09;100.00
19676;BME280;39539;52.202;9.876;2023-02-10T02:33:02;102607.72;;;1.99;100.00
19676;BME280;39539;52.202;9.876;2023-02-10T02:35:38;102615.91;;;2.07;100.00
19676;BME280;39539;52.202;9.876;2023-02-10T02:38:05;102607.31;;;2.05;100.00
19676;BME280;39539;52.202;9.876;2023-02-10T02:40:30;102611.59;;;2.06;100.00
19676;BME280;39539;52.202;9.876;2023-02-10T02:42:56;102610.88;;;2.04;100.00
19676;BME280;39539;52.202;9.876;2023-02-10T02:48:00;102613.81;;;1.99;100.00
19676;BME280;39539;52.202;9.876;2023-02-10T02:50:40;102611.28;;;1.98;100.00
19676;BME280;39539;52.202;9.876;2023-02-10T02:53:37;102610.34;;;1.99;100.00
19676;BME280;39539;52.202;9.876;2023-02-10T02:56:23;102606.22;;;1.95;100.00
19676;BME280;39539;52.202;9.876;2023-02-10T02:59:10;102606.66;;;1.89;100.00
19676;BME280;39539;52.202;9.876;2023-02-10T03:01:48;102608.72;;;1.84;100.00
19676;BME280;39539;52.202;9.876;2023-02-10T03:04:17;102601.38;;;1.76;100.00
19676;BME280;39539;52.202;9.876;2023-02-10T03:06:42;102600.09;;;1.69;100.00
19676;BME280;39539;52.202;9.876;2023-02-10T03:09:08;102609.06;;;1.52;100.00
19676;BME280;39539;52.202;9.876;2023-02-10T03:11:34;102600.22;;;1.40;100.00
19676;BME280;39539;52.202;9.876;2023-02-10T03:14:00;102607.31;;;1.38;100.00
19676;BME280;39539;52.202;9.876;2023-02-10T03:16:25;102605.78;;;1.21;100.00
19676;BME280;39539;52.202;9.876;2023-02-10T03:18:51;102599.91;;;1.18;100.00
19676;BME280;39539;52.202;9.876;2023-02-10T03:21:16;102595.69;;;1.15;100.00
19676;BME280;39539;52.202;9.876;2023-02-10T03:23:41;102593.19;;;1.14;100.00
19676;BME280;39539;52.202;9.876;2023-02-10T03:26:07;102590.47;;;1.15;100.00
19676;BME280;39539;52.202;9.876;2023-02-10T03:28:32;102577.25;;;0.89;100.00
19676;BME280;39539;52.202;9.876;2023-02-10T03:31:01;102594.94;;;0.86;100.00
19676;BME280;39539;52.202;9.876;2023-02-10T03:33:27;102610.25;;;0.92;100.00
19676;BME280;39539;52.202;9.876;2023-02-10T03:35:52;102593.16;;;0.72;100.00
19676;BME280;39539;52.202;9.876;2023-02-10T03:38:17;102612.59;;;0.82;100.00
19676;BME280;39539;52.202;9.876;2023-02-10T03:40:43;102605.22;;;0.75;100.00
19676;BME280;39539;52.202;9.876;2023-02-10T03:43:08;102600.06;;;0.59;100.00
19676;BME280;39539;52.202;9.876;2023-02-10T03:45:34;102593.16;;;0.58;100.00
19676;BME280;39539;52.202;9.876;2023-02-10T03:47:59;102620.81;;;0.76;100.00
19676;BME280;39539;52.202;9.876;2023-02-10T03:50:25;102630.38;;;0.77;100.00
19676;BME280;39539;52.202;9.876;2023-02-10T03:52:50;102625.50;;;0.85;100.00
19676;BME280;39539;52.202;9.876;2023-02-10T03:55:16;102626.63;;;0.81;100.00
19676;BME280;39539;52.202;9.876;2023-02-10T03:57:44;102635.97;;;0.85;100.00
19676;BME280;39539;52.202;9.876;2023-02-10T04:00:11;102637.44;;;0.89;100.00
19676;BME280;39539;52.202;9.876;2023-02-10T04:02:37;102642.88;;;1.01;100.00
19676;BME280;39539;52.202;9.876;2023-02-10T04:05:02;102645.47;;;1.01;100.00
19676;BME280;39539;52.202;9.876;2023-02-10T04:07:28;102639.38;;;1.15;100.00
19676;BME280;39539;52.202;9.876;2023-02-10T04:09:54;102641.94;;;1.16;100.00
19676;BME280;39539;52.202;9.876;2023-02-10T04:12:19;102642.19;;;1.11;100.00
19676;BME280;39539;52.202;9.876;2023-02-10T04:14:45;102637.59;;;1.15;100.00
19676;BME280;39539;52.202;9.876;2023-02-10T04:17:10;102632.53;;;1.26;100.00
19676;BME280;39539;52.202;9.876;2023-02-10T04:19:36;102635.16;;;1.26;100.00
19676;BME280;39539;52.202;9.876;2023-02-10T04:22:01;102638.59;;;1.27;100.00
19676;BME280;39539;52.202;9.876;2023-02-10T04:24:26;102632.81;;;1.22;100.00
19676;BME280;39539;52.202;9.876;2023-02-10T04:26:52;102638.53;;;1.28;100.00
19676;BME280;39539;52.202;9.876;2023-02-10T04:29:17;102631.22;;;1.33;100.00
19676;BME280;39539;52.202;9.876;2023-02-10T04:31:42;102627.44;;;1.38;100.00
19676;BME280;39539;52.202;9.876;2023-02-10T04:34:09;102615.00;;;1.41;100.00
19676;BME280;39539;52.202;9.876;2023-02-10T04:36:34;102623.72;;;1.42;100.00
19676;BME280;39539;52.202;9.876;2023-02-10T04:38:59;102604.28;;;1.31;100.00
19676;BME280;39539;52.202;9.876;2023-02-10T04:41:26;102631.19;;;1.48;100.00
19676;BME280;39539;52.202;9.876;2023-02-10T04:43:51;102620.44;;;1.38;100.00
19676;BME280;39539;52.202;9.876;2023-02-10T04:46:17;102613.59;;;1.35;100.00
19676;BME280;39539;52.202;9.876;2023-02-10T04:48:42;102608.88;;;1.28;100.00
19676;BME280;39539;52.202;9.876;2023-02-10T04:51:09;102620.94;;;1.30;100.00
19676;BME280;39539;52.202;9.876;2023-02-10T04:53:37;102615.88;;;1.27;100.00
19676;BME280;39539;52.202;9.876;2023-02-10T04:56:03;102611.72;;;1.38;100.00
19676;BME280;39539;52.202;9.876;2023-02-10T04:58:30;102619.03;;;1.32;100.00
19676;BME280;39539;52.202;9.876;2023-02-10T05:00:56;102629.78;;;1.42;100.00
19676;BME280;39539;52.202;9.876;2023-02-10T05:03:21;102615.50;;;1.33;100.00
19676;BME280;39539;52.202;9.876;2023-02-10T05:05:47;102606.13;;;1.29;100.00
19676;BME280;39539;52.202;9.876;2023-02-10T05:08:14;102594.38;;;1.22;100.00
19676;BME280;39539;52.202;9.876;2023-02-10T05:10:41;102607.69;;;1.19;100.00
19676;BME280;39539;52.202;9.876;2023-02-10T05:13:07;102603.69;;;1.14;100.00
19676;BME280;39539;52.202;9.876;2023-02-10T05:15:32;102617.75;;;1.25;100.00
19676;BME280;39539;52.202;9.876;2023-02-10T05:17:58;102619.25;;;1.29;100.00
19676;BME280;39539;52.202;9.876;2023-02-10T05:20:23;102593.84;;;1.17;100.00
19676;BME280;39539;52.202;9.876;2023-02-10T05:22:48;102615.50;;;1.33;100.00
19676;BME280;39539;52.202;9.876;2023-02-10T05:25:15;102628.97;;;1.42;100.00
19676;BME280;39539;52.202;9.876;2023-02-10T05:27:40;102628.00;;;1.43;100.00
19676;BME280;39539;52.202;9.876;2023-02-10T05:30:06;102595.56;;;1.31;100.00
19676;BME280;39539;52.202;9.876;2023-02-10T05:32:34;102611.53;;;1.41;100.00
19676;BME280;39539;52.202;9.876;2023-02-10T05:34:59;102612.00;;;1.47;100.00
19676;BME280;39539;52.202;9.876;2023-02-10T05:37:25;102616.00;;;1.53;100.00
19676;BME280;39539;52.202;9.876;2023-02-10T05:39:51;102622.91;;;1.54;100.00
19676;BME280;39539;52.202;9.876;2023-02-10T05:42:17;102632.25;;;1.58;100.00
19676;BME280;39539;52.202;9.876;2023-02-10T05:44:42;102616.56;;;1.44;100.00
19676;BME280;39539;52.202;9.876;2023-02-10T05:47:09;102596.75;;;1.40;100.00
19676;BME280;39539;52.202;9.876;2023-02-10T05:49:35;102607.47;;;1.49;100.00
19676;BME280;39539;52.202;9.876;2023-02-10T05:52:01;102634.47;;;1.64;100.00
19676;BME280;39539;52.202;9.876;2023-02-10T05:54:30;102612.91;;;1.46;100.00
19676;BME280;39539;52.202;9.876;2023-02-10T05:56:55;102626.78;;;1.48;100.00
19676;BME280;39539;52.202;9.876;2023-02-10T05:59:21;102639.47;;;1.54;100.00
19676;BME280;39539;52.202;9.876;2023-02-10T06:01:46;102628.91;;;1.56;100.00
19676;BME280;39539;52.202;9.876;2023-02-10T06:04:12;102629.09;;;1.53;100.00
19676;BME280;39539;52.202;9.876;2023-02-10T06:06:37;102643.00;;;1.68;100.00
19676;BME280;39539;52.202;9.876;2023-02-10T06:09:05;102651.88;;;1.65;100.00
19676;BME280;39539;52.202;9.876;2023-02-10T06:11:31;102641.25;;;1.54;100.00
19676;BME280;39539;52.202;9.876;2023-02-10T06:13:57;102655.63;;;1.61;100.00
19676;BME280;39539;52.202;9.876;2023-02-10T06:16:23;102656.19;;;1.66;100.00
19676;BME280;39539;52.202;9.876;2023-02-10T06:18:48;102660.03;;;1.61;100.00
19676;BME280;39539;52.202;9.876;2023-02-10T06:21:15;102659.84;;;1.64;100.00
19676;BME280;39539;52.202;9.876;2023-02-10T06:23:42;102662.38;;;1.65;100.00
19676;BME280;39539;52.202;9.876;2023-02-10T06:26:08;102665.75;;;1.67;100.00
19676;BME280;39539;52.202;9.876;2023-02-10T06:28:35;102642.72;;;1.31;100.00
19676;BME280;39539;52.202;9.876;2023-02-10T06:31:00;102652.41;;;1.43;100.00
19676;BME280;39539;52.202;9.876;2023-02-10T06:33:27;102649.03;;;1.41;100.00
19676;BME280;39539;52.202;9.876;2023-02-10T06:35:52;102664.97;;;1.38;100.00
19676;BME280;39539;52.202;9.876;2023-02-10T06:38:18;102681.16;;;1.45;100.00
19676;BME280;39539;52.202;9.876;2023-02-10T06:40:52;102679.00;;;1.37;100.00
19676;BME280;39539;52.202;9.876;2023-02-10T06:43:17;102687.97;;;1.47;100.00
19676;BME280;39539;52.202;9.876;2023-02-10T06:45:55;102677.78;;;1.43;100.00
19676;BME280;39539;52.202;9.876;2023-02-10T06:48:41;102701.53;;;1.54;100.00
19676;BME280;39539;52.202;9.876;2023-02-10T06:51:07;102698.91;;;1.54;100.00
19676;BME280;39539;52.202;9.876;2023-02-10T06:53:32;102692.00;;;1.53;100.00
19676;BME280;39539;52.202;9.876;2023-02-10T06:56:04;102695.06;;;1.60;100.00
19676;BME280;39539;52.202;9.876;2023-02-10T06:58:29;102679.75;;;1.39;100.00
19676;BME280;39539;52.202;9.876;2023-02-10T07:00:59;102688.84;;;1.33;100.00
19676;BME280;39539;52.202;9.876;2023-02-10T07:03:26;102705.78;;;1.28;100.00
19676;BME280;39539;52.202;9.876;2023-02-10T07:05:52;102701.03;;;1.20;100.00
19676;BME280;39539;52.202;9.876;2023-02-10T07:08:18;102682.50;;;1.09;100.00
19676;BME280;39539;52.202;9.876;2023-02-10T07:10:43;102709.53;;;1.24;100.00
19676;BME280;39539;52.202;9.876;2023-02-10T07:13:12;102702.06;;;1.18;100.00
19676;BME280;39539;52.202;9.876;2023-02-10T07:15:53;102712.78;;;1.27;100.00
19676;BME280;39539;52.202;9.876;2023-02-10T07:18:24;102712.63;;;1.30;100.00
19676;BME280;39539;52.202;9.876;2023-02-10T07:20:51;102705.22;;;1.37;100.00
19676;BME280;39539;52.202;9.876;2023-02-10T07:23:19;102711.22;;;1.39;100.00
19676;BME280;39539;52.202;9.876;2023-02-10T07:25:50;102705.03;;;1.40;100.00
19676;BME280;39539;52.202;9.876;2023-02-10T07:28:17;102689.94;;;1.44;100.00
19676;BME280;39539;52.202;9.876;2023-02-10T07:30:44;102700.56;;;1.55;100.00
19676;BME280;39539;52.202;9.876;2023-02-10T07:33:35;102718.34;;;1.64;100.00
19676;BME280;39539;52.202;9.876;2023-02-10T07:36:01;102692.72;;;1.55;100.00
19676;BME280;39539;52.202;9.876;2023-02-10T07:38:29;102717.38;;;1.79;100.00
19676;BME280;39539;52.202;9.876;2023-02-10T07:41:16;102713.53;;;1.98;100.00
19676;BME280;39539;52.202;9.876;2023-02-10T07:43:51;102718.94;;;2.09;100.00
19676;BME280;39539;52.202;9.876;2023-02-10T07:46:19;102720.56;;;2.24;100.00
19676;BME280;39539;52.202;9.876;2023-02-10T07:48:45;102724.81;;;2.53;100.00
19676;BME280;39539;52.202;9.876;2023-02-10T07:51:10;102721.97;;;2.68;100.00
19676;BME280;39539;52.202;9.876;2023-02-10T07:53:36;102723.25;;;3.01;100.00
19676;BME280;39539;52.202;9.876;2023-02-10T07:56:03;102730.25;;;3.13;100.00
19676;BME280;39539;52.202;9.876;2023-02-10T07:58:30;102706.41;;;3.17;100.00
19676;BME280;39539;52.202;9.876;2023-02-10T08:00:56;102733.59;;;3.41;100.00
19676;BME280;39539;52.202;9.876;2023-02-10T08:03:23;102705.13;;;3.22;100.00
19676;BME280;39539;52.202;9.876;2023-02-10T08:06:01;102711.75;;;3.28;100.00
19676;BME280;39539;52.202;9.876;2023-02-10T08:08:27;102719.94;;;3.36;100.00
19676;BME280;39539;52.202;9.876;2023-02-10T08:10:53;102719.19;;;3.34;100.00
19676;BME280;39539;52.202;9.876;2023-02-10T08:13:20;102714.38;;;3.28;100.00
19676;BME280;39539;52.202;9.876;2023-02-10T08:15:48;102725.31;;;3.34;100.00
19676;BME280;39539;52.202;9.876;2023-02-10T08:18:15;102714.66;;;3.36;100.00
19676;BME280;39539;52.202;9.876;2023-02-10T08:23:45;102714.38;;;3.28;100.00
19676;BME280;39539;52.202;9.876;2023-02-10T08:26:12;102702.09;;;3.15;100.00
19676;BME280;39539;52.202;9.876;2023-02-10T08:28:50;102701.38;;;3.13;100.00
19676;BME280;39539;52.202;9.876;2023-02-10T08:31:27;102719.22;;;3.21;100.00
19676;BME280;39539;52.202;9.876;2023-02-10T08:33:52;102719.00;;;3.24;100.00
19676;BME280;39539;52.202;9.876;2023-02-10T08:36:19;102731.41;;;3.35;100.00
19676;BME280;39539;52.202;9.876;2023-02-10T08:38:48;102747.91;;;3.74;100.00
19676;BME280;39539;52.202;9.876;2023-02-10T08:41:14;102743.31;;;4.13;100.00
19676;BME280;39539;52.202;9.876;2023-02-10T08:43:40;102743.94;;;4.16;100.00
19676;BME280;39539;52.202;9.876;2023-02-10T08:46:07;102727.69;;;4.22;100.00
19676;BME280;39539;52.202;9.876;2023-02-10T08:48:34;102732.72;;;4.25;100.00
19676;BME280;39539;52.202;9.876;2023-02-10T08:51:08;102720.97;;;4.18;100.00
19676;BME280;39539;52.202;9.876;2023-02-10T08:53:34;102737.88;;;4.27;100.00
19676;BME280;39539;52.202;9.876;2023-02-10T08:56:16;102720.13;;;4.53;100.00
19676;BME280;39539;52.202;9.876;2023-02-10T08:58:42;102729.16;;;4.84;100.00
19676;BME280;39539;52.202;9.876;2023-02-10T09:01:23;102737.19;;;5.05;100.00
19676;BME280;39539;52.202;9.876;2023-02-10T09:03:53;102751.78;;;5.43;100.00
19676;BME280;39539;52.202;9.876;2023-02-10T09:06:24;102748.97;;;5.90;97.22
19676;BME280;39539;52.202;9.876;2023-02-10T09:09:02;102741.84;;;5.69;96.72
19676;BME280;39539;52.202;9.876;2023-02-10T09:11:30;102727.59;;;6.04;96.02
19676;BME280;39539;52.202;9.876;2023-02-10T09:13:57;102709.84;;;6.27;93.93
19676;BME280;39539;52.202;9.876;2023-02-10T09:16:23;102733.25;;;6.32;93.56
19676;BME280;39539;52.202;9.876;2023-02-10T09:18:51;102718.91;;;6.13;94.31
19676;BME280;39539;52.202;9.876;2023-02-10T09:21:17;102727.75;;;6.44;93.61
19676;BME280;39539;52.202;9.876;2023-02-10T09:23:44;102711.03;;;6.02;94.93
19676;BME280;39539;52.202;9.876;2023-02-10T09:26:10;102730.28;;;6.46;93.94
19676;BME280;39539;52.202;9.876;2023-02-10T09:28:40;102723.97;;;6.58;93.16
19676;BME280;39539;52.202;9.876;2023-02-10T09:31:07;102738.63;;;6.51;93.18
19676;BME280;39539;52.202;9.876;2023-02-10T09:33:58;102727.63;;;6.25;94.58
19676;BME280;39539;52.202;9.876;2023-02-10T09:36:27;102717.66;;;5.96;95.66
19676;BME280;39539;52.202;9.876;2023-02-10T09:38:55;102715.09;;;5.62;96.77
19676;BME280;39539;52.202;9.876;2023-02-10T09:44:21;102722.94;;;5.19;100.00
19676;BME280;39539;52.202;9.876;2023-02-10T09:46:52;102721.63;;;5.02;100.00
19676;BME280;39539;52.202;9.876;2023-02-10T09:55:15;102732.50;;;4.86;100.00
19676;BME280;39539;52.202;9.876;2023-02-10T09:57:51;102722.44;;;4.80;100.00
19676;BME280;39539;52.202;9.876;2023-02-10T10:00:27;102728.78;;;4.89;100.00
19676;BME280;39539;52.202;9.876;2023-02-10T10:03:00;102734.91;;;5.01;100.00
19676;BME280;39539;52.202;9.876;2023-02-10T10:05:57;102735.88;;;5.11;100.00
19676;BME280;39539;52.202;9.876;2023-02-10T10:13:55;102737.03;;;5.63;100.00
19676;BME280;39539;52.202;9.876;2023-02-10T10:16:33;102733.22;;;5.56;100.00
19676;BME280;39539;52.202;9.876;2023-02-10T10:19:05;102732.50;;;5.54;100.00
19676;BME280;39539;52.202;9.876;2023-02-10T10:27:33;102717.66;;;4.85;100.00
19676;BME280;39539;52.202;9.876;2023-02-10T10:30:12;102722.69;;;5.00;100.00
19676;BME280;39539;52.202;9.876;2023-02-10T10:32:59;102728.19;;;5.42;100.00
19676;BME280;39539;52.202;9.876;2023-02-10T10:35:42;102721.63;;;5.79;100.00
19676;BME280;39539;52.202;9.876;2023-02-10T10:38:29;102728.44;;;6.25;98.71
19676;BME280;39539;52.202;9.876;2023-02-10T10:41:02;102732.16;;;6.34;95.70
19676;BME280;39539;52.202;9.876;2023-02-10T10:43:50;102721.69;;;6.33;95.21
19676;BME280;39539;52.202;9.876;2023-02-10T10:48:48;102712.75;;;5.92;96.27
19676;BME280;39539;52.202;9.876;2023-02-10T10:51:16;102714.44;;;5.81;97.05
19676;BME280;39539;52.202;9.876;2023-02-10T10:54:00;102708.72;;;5.65;97.56
19676;BME280;39539;52.202;9.876;2023-02-10T10:56:39;102693.19;;;5.39;98.98
19676;BME280;39539;52.202;9.876;2023-02-10T11:01:42;102688.53;;;5.32;100.00
19676;BME280;39539;52.202;9.876;2023-02-10T11:06:41;102678.63;;;5.24;100.00
19676;BME280;39539;52.202;9.876;2023-02-10T11:09:29;102676.41;;;5.40;100.00
19676;BME280;39539;52.202;9.876;2023-02-10T11:12:24;102678.31;;;5.50;100.00
19676;BME280;39539;52.202;9.876;2023-02-10T11:14:52;102679.97;;;5.51;100.00
19676;BME280;39539;52.202;9.876;2023-02-10T11:17:39;102669.63;;;5.15;100.00
19676;BME280;39539;52.202;9.876;2023-02-10T11:22:37;102676.66;;;5.81;99.06
19676;BME280;39539;52.202;9.876;2023-02-10T11:25:29;102689.66;;;6.05;97.93
19676;BME280;39539;52.202;9.876;2023-02-10T11:28:02;102682.94;;;6.12;97.79
19676;BME280;39539;52.202;9.876;2023-02-10T11:30:35;102679.69;;;6.08;96.69
19676;BME280;39539;52.202;9.876;2023-02-10T11:33:23;102678.22;;;5.95;95.13
19676;BME280;39539;52.202;9.876;2023-02-10T11:36:08;102671.72;;;5.88;95.46
19676;BME280;39539;52.202;9.876;2023-02-10T11:38:35;102655.47;;;5.71;96.17
19676;BME280;39539;52.202;9.876;2023-02-10T11:41:05;102678.84;;;6.08;95.43
19676;BME280;39539;52.202;9.876;2023-02-10T11:43:42;102668.38;;;6.18;94.47
19676;BME280;39539;52.202;9.876;2023-02-10T11:46:23;102673.19;;;6.34;94.59
19676;BME280;39539;52.202;9.876;2023-02-10T11:49:03;102665.13;;;6.56;93.84
19676;BME280;39539;52.202;9.876;2023-02-10T11:51:54;102665.47;;;6.42;93.67
19676;BME280;39539;52.202;9.876;2023-02-10T11:54:24;102657.28;;;6.24;93.35
19676;BME280;39539;52.202;9.876;2023-02-10T12:00:08;102642.19;;;5.94;94.72
19676;BME280;39539;52.202;9.876;2023-02-10T12:06:13;102641.06;;;6.07;94.62
19676;BME280;39539;52.202;9.876;2023-02-10T12:15:12;102632.78;;;6.73;94.88
19676;BME280;39539;52.202;9.876;2023-02-10T12:18:12;102635.53;;;6.62;91.75
19676;BME280;39539;52.202;9.876;2023-02-10T12:41:04;102620.47;;;6.53;92.04
19676;BME280;39539;52.202;9.876;2023-02-10T12:43:59;102617.78;;;6.43;91.82
19676;BME280;39539;52.202;9.876;2023-02-10T12:46:41;102615.91;;;6.55;92.43
19676;BME280;39539;52.202;9.876;2023-02-10T12:52:17;102617.28;;;6.90;90.05
19676;BME280;39539;52.202;9.876;2023-02-10T12:54:57;102617.13;;;6.51;91.29
19676;BME280;39539;52.202;9.876;2023-02-10T12:57:33;102606.22;;;6.65;90.88
19676;BME280;39539;52.202;9.876;2023-02-10T13:02:51;102600.16;;;6.53;90.69
19676;BME280;39539;52.202;9.876;2023-02-10T13:05:23;102596.97;;;6.50;91.91
19676;BME280;39539;52.202;9.876;2023-02-10T13:08:04;102597.16;;;6.68;92.65
19676;BME280;39539;52.202;9.876;2023-02-10T13:13:25;102578.84;;;6.76;91.09
19676;BME280;39539;52.202;9.876;2023-02-10T13:16:00;102574.75;;;6.62;90.05
19676;BME280;39539;52.202;9.876;2023-02-10T13:18:29;102567.19;;;6.48;91.81
19676;BME280;39539;52.202;9.876;2023-02-10T13:34:33;102538.09;;;6.07;93.16
19676;BME280;39539;52.202;9.876;2023-02-10T13:37:15;102536.28;;;6.08;93.01
19676;BME280;39539;52.202;9.876;2023-02-10T13:39:53;102536.41;;;5.85;92.65
19676;BME280;39539;52.202;9.876;2023-02-10T13:42:39;102531.38;;;5.82;93.99
19676;BME280;39539;52.202;9.876;2023-02-10T13:45:47;102526.38;;;5.79;94.93
19676;BME280;39539;52.202;9.876;2023-02-10T13:48:07;102513.81;;;5.51;96.99
19676;BME280;39539;52.202;9.876;2023-02-10T13:50:55;102512.22;;;5.38;97.18
19676;BME280;39539;52.202;9.876;2023-02-10T13:53:40;102505.16;;;5.07;99.01
19676;BME280;39539;52.202;9.876;2023-02-10T14:01:48;102499.88;;;4.63;100.00
19676;BME280;39539;52.202;9.876;2023-02-10T14:13:26;102509.59;;;4.40;100.00
19676;BME280;39539;52.202;9.876;2023-02-10T14:16:01;102497.16;;;4.31;100.00
19676;BME280;39539;52.202;9.876;2023-02-10T14:18:36;102497.63;;;4.36;100.00
19676;BME280;39539;52.202;9.876;2023-02-10T14:21:15;102500.47;;;4.44;100.00
19676;BME280;39539;52.202;9.876;2023-02-10T14:23:53;102498.31;;;4.49;100.00
19676;BME280;39539;52.202;9.876;2023-02-10T14:26:25;102501.69;;;4.52;100.00
19676;BME280;39539;52.202;9.876;2023-02-10T14:28:56;102507.91;;;4.62;98.75
19676;BME280;39539;52.202;9.876;2023-02-10T14:31:38;102509.31;;;4.66;98.51
19676;BME280;39539;52.202;9.876;2023-02-10T14:37:19;102497.47;;;4.60;97.78
19676;BME280;39539;52.202;9.876;2023-02-10T14:39:53;102501.19;;;4.58;97.85
19676;BME280;39539;52.202;9.876;2023-02-10T14:42:21;102500.63;;;4.43;98.59
19676;BME280;39539;52.202;9.876;2023-02-10T14:44:50;102496.44;;;4.29;100.00
19676;BME280;39539;52.202;9.876;2023-02-10T14:47:21;102498.81;;;4.32;99.66
19676;BME280;39539;52.202;9.876;2023-02-10T14:49:53;102499.78;;;4.31;100.00
19676;BME280;39539;52.202;9.876;2023-02-10T14:52:21;102484.94;;;4.19;100.00
19676;BME280;39539;52.202;9.876;2023-02-10T14:54:47;102502.44;;;4.20;100.00
19676;BME280;39539;52.202;9.876;2023-02-10T14:57:15;102494.03;;;4.15;100.00
19676;BME280;39539;52.202;9.876;2023-02-10T14:59:58;102489.03;;;4.12;100.00
19676;BME280;39539;52.202;9.876;2023-02-10T15:02:36;102476.81;;;3.99;100.00
19676;BME280;39539;52.202;9.876;2023-02-10T15:05:02;102480.16;;;4.01;100.00
19676;BME280;39539;52.202;9.876;2023-02-10T15:07:37;102475.59;;;3.92;100.00
19676;BME280;39539;52.202;9.876;2023-02-10T15:10:38;102475.50;;;3.94;100.00
19676;BME280;39539;52.202;9.876;2023-02-10T15:13:10;102483.25;;;3.95;100.00
19676;BME280;39539;52.202;9.876;2023-02-10T15:15:41;102469.75;;;3.89;100.00
19676;BME280;39539;52.202;9.876;2023-02-10T15:18:27;102476.34;;;3.94;100.00